Terminal Aerodrome Forecast
Issued by NWS

Home | Current Version | Previous Version | Text Only | Print | Product List | Glossary On
Versions: 1 2 3 4 5 6 7 8 9 10 11 12 13
000
FTUS45 KRIW 301122
TAFCPR
TAF
KCPR 301122Z 3012/3112 22012G18KT P6SM FEW110 BKN200
     FM301500 22022G30KT P6SM SCT110 BKN200
     FM302000 23018G30KT P6SM VCTS SCT080CB BKN120
     FM310400 24012G18KT P6SM SCT120
     FM311000 23007KT P6SM SKC=

USA.gov is the U.S. government's official web portal to all federal, state and local government web resources and services.